ARG1818 SABE-SAVE
Flight info
| Callsign | ARG1818 |
|---|---|
| Flight time | 2h 10m |
| Altitude | 36000 |
| Route | PAL9 TORUL UT654 BIXIM UW41 NITLO DCT OPLAS |
| Aircraft | B738/M-MSDFGHILRVW/LB1 |
Departure
| Time | 2026-04-22 15:54 |
|---|---|
| Airport | Aeroparque Jorge Newbery (SABE) |
Arrival
| Time | 2026-04-22 18:05 |
|---|---|
| Airport | Esquel Brigadier Antonio Parodi International Airport (SAVE) |
| Time | Latitude | Longitude | Altitude | Speed | Heading |
|---|---|---|---|---|---|
| 2026-04-22 15:04 | -34.55780 | -58.41289 | 24 ft | 0 kts | 36° |
| 2026-04-22 15:44 | -34.55782 | -58.41290 | 24 ft | 3 kts | 36° |
| 2026-04-22 15:44 | -34.55803 | -58.41308 | 30 ft | 4 kts | 20° |
| 2026-04-22 15:44 | -34.55822 | -58.41310 | 29 ft | 3 kts | 303° |
| 2026-04-22 15:45 | -34.55835 | -58.41284 | 28 ft | 4 kts | 301° |
| 2026-04-22 15:45 | -34.55849 | -58.41256 | 29 ft | 4 kts | 301° |
| 2026-04-22 15:45 | -34.55858 | -58.41236 | 30 ft | 0 kts | 301° |
| 2026-04-22 15:48 | -34.55857 | -58.41240 | 30 ft | 2 kts | 299° |
| 2026-04-22 15:48 | -34.55866 | -58.41279 | 28 ft | 7 kts | 226° |
| 2026-04-22 15:49 | -34.55915 | -58.41300 | 29 ft | 9 kts | 163° |
| 2026-04-22 15:49 | -34.55964 | -58.41237 | 27 ft | 12 kts | 127° |
| 2026-04-22 15:49 | -34.56018 | -58.41151 | 26 ft | 14 kts | 127° |
| 2026-04-22 15:49 | -34.56075 | -58.41061 | 27 ft | 13 kts | 127° |
| 2026-04-22 15:50 | -34.56128 | -58.40973 | 27 ft | 13 kts | 124° |
| 2026-04-22 15:50 | -34.56170 | -58.40887 | 28 ft | 8 kts | 113° |
| 2026-04-22 15:50 | -34.56179 | -58.40821 | 24 ft | 8 kts | 119° |
| 2026-04-22 15:50 | -34.56209 | -58.40764 | 25 ft | 8 kts | 124° |
| 2026-04-22 15:51 | -34.56239 | -58.40711 | 28 ft | 8 kts | 124° |
| 2026-04-22 15:51 | -34.56268 | -58.40658 | 27 ft | 7 kts | 124° |
| 2026-04-22 15:51 | -34.56296 | -58.40608 | 28 ft | 7 kts | 124° |
| 2026-04-22 15:51 | -34.56328 | -58.40564 | 27 ft | 7 kts | 137° |
| 2026-04-22 15:52 | -34.56367 | -58.40521 | 27 ft | 9 kts | 138° |
| 2026-04-22 15:52 | -34.56417 | -58.40467 | 29 ft | 10 kts | 138° |
| 2026-04-22 15:52 | -34.56467 | -58.40412 | 25 ft | 10 kts | 138° |
| 2026-04-22 15:52 | -34.56523 | -58.40386 | 24 ft | 9 kts | 201° |
| 2026-04-22 15:53 | -34.56565 | -58.40422 | 26 ft | 6 kts | 238° |
| 2026-04-22 15:53 | -34.56554 | -58.40450 | 26 ft | 0 kts | 304° |
| 2026-04-22 15:53 | -34.56512 | -58.40527 | 25 ft | 39 kts | 304° |
| 2026-04-22 15:54 | -34.56221 | -58.41048 | 26 ft | 108 kts | 303° |
| 2026-04-22 15:54 | -34.55688 | -58.42002 | 38 ft | 161 kts | 302° |
| 2026-04-22 15:54 | -34.55046 | -58.43139 | 669 ft | 163 kts | 301° |
| 2026-04-22 15:54 | -34.54338 | -58.44240 | 1327 ft | 175 kts | 318° |
| 2026-04-22 15:55 | -34.53079 | -58.44625 | 1767 ft | 210 kts | 8° |
| 2026-04-22 15:55 | -34.51726 | -58.43734 | 2138 ft | 233 kts | 39° |
| 2026-04-22 15:55 | -34.50392 | -58.42503 | 2560 ft | 248 kts | 35° |
| 2026-04-22 15:55 | -34.48915 | -58.41337 | 3117 ft | 256 kts | 32° |
| 2026-04-22 15:56 | -34.47375 | -58.40153 | 3663 ft | 274 kts | 33° |
| 2026-04-22 15:56 | -34.45704 | -58.38839 | 4110 ft | 292 kts | 33° |
| 2026-04-22 15:56 | -34.44015 | -58.37493 | 5054 ft | 292 kts | 32° |
| 2026-04-22 15:56 | -34.42455 | -58.35819 | 5617 ft | 309 kts | 52° |
| 2026-04-22 15:57 | -34.41471 | -58.33508 | 6429 ft | 309 kts | 78° |
| 2026-04-22 15:57 | -34.41369 | -58.30940 | 7211 ft | 307 kts | 105° |
| 2026-04-22 15:57 | -34.42187 | -58.28643 | 7939 ft | 298 kts | 134° |
| 2026-04-22 15:57 | -34.43775 | -58.27169 | 8723 ft | 285 kts | 165° |
| 2026-04-22 15:58 | -34.45693 | -58.26858 | 9378 ft | 277 kts | 195° |
| 2026-04-22 15:58 | -34.47424 | -58.27769 | 10081 ft | 271 kts | 222° |
| 2026-04-22 15:58 | -34.48622 | -58.29496 | 10790 ft | 270 kts | 243° |
| 2026-04-22 15:58 | -34.49506 | -58.31594 | 11049 ft | 292 kts | 245° |
| 2026-04-22 15:59 | -34.50414 | -58.33903 | 11224 ft | 314 kts | 246° |
| 2026-04-22 15:59 | -34.51373 | -58.36374 | 11439 ft | 333 kts | 246° |
| 2026-04-22 15:59 | -34.52374 | -58.38947 | 11951 ft | 340 kts | 246° |
| 2026-04-22 15:59 | -34.53390 | -58.41546 | 12619 ft | 343 kts | 247° |
| 2026-04-22 16:00 | -34.54418 | -58.44168 | 13320 ft | 345 kts | 247° |
| 2026-04-22 16:00 | -34.55458 | -58.46819 | 13981 ft | 349 kts | 248° |
| 2026-04-22 16:00 | -34.56507 | -58.49488 | 14577 ft | 352 kts | 248° |
| 2026-04-22 16:00 | -34.57561 | -58.52176 | 15171 ft | 355 kts | 248° |
| 2026-04-22 16:01 | -34.58673 | -58.54871 | 15724 ft | 361 kts | 242° |
| 2026-04-22 16:01 | -34.60381 | -58.57167 | 16263 ft | 377 kts | 223° |
| 2026-04-22 16:01 | -34.62715 | -58.58738 | 16841 ft | 393 kts | 206° |
| 2026-04-22 16:01 | -34.65455 | -58.59396 | 17360 ft | 411 kts | 187° |
| 2026-04-22 16:02 | -34.68337 | -58.58922 | 17882 ft | 428 kts | 169° |
| 2026-04-22 16:02 | -34.71181 | -58.57815 | 18420 ft | 434 kts | 167° |
| 2026-04-22 16:02 | -34.74064 | -58.56661 | 18810 ft | 438 kts | 167° |
| 2026-04-22 16:02 | -34.76955 | -58.55618 | 19269 ft | 437 kts | 175° |
| 2026-04-22 16:03 | -34.79932 | -58.55543 | 19679 ft | 423 kts | 197° |
| 2026-04-22 16:03 | -34.82675 | -58.56626 | 20200 ft | 410 kts | 213° |
| 2026-04-22 16:03 | -34.85072 | -58.58428 | 20721 ft | 401 kts | 225° |
| 2026-04-22 16:03 | -34.86984 | -58.60829 | 21180 ft | 393 kts | 238° |
| 2026-04-22 16:04 | -34.88623 | -58.63495 | 21671 ft | 393 kts | 239° |
| 2026-04-22 16:04 | -34.90230 | -58.66202 | 22128 ft | 395 kts | 240° |
| 2026-04-22 16:04 | -34.91841 | -58.68935 | 22577 ft | 398 kts | 240° |
| 2026-04-22 16:04 | -34.93463 | -58.71672 | 23027 ft | 400 kts | 240° |
| 2026-04-22 16:05 | -34.94554 | -58.73502 | 23320 ft | 401 kts | 240° |
| 2026-04-22 16:05 | -34.96745 | -58.77156 | 23859 ft | 404 kts | 239° |
| 2026-04-22 16:05 | -34.98433 | -58.79958 | 24237 ft | 406 kts | 239° |
| 2026-04-22 16:05 | -35.00109 | -58.82735 | 24619 ft | 407 kts | 239° |
| 2026-04-22 16:06 | -35.01788 | -58.85516 | 24981 ft | 408 kts | 239° |
| 2026-04-22 16:06 | -35.03455 | -58.88280 | 25335 ft | 410 kts | 240° |
| 2026-04-22 16:06 | -35.05147 | -58.91088 | 25688 ft | 411 kts | 240° |
| 2026-04-22 16:06 | -35.06844 | -58.93908 | 26029 ft | 412 kts | 240° |
| 2026-04-22 16:07 | -35.08543 | -58.96732 | 26367 ft | 414 kts | 240° |
| 2026-04-22 16:07 | -35.10247 | -58.99567 | 26713 ft | 415 kts | 240° |
| 2026-04-22 16:07 | -35.11959 | -59.02419 | 26998 ft | 418 kts | 240° |
| 2026-04-22 16:07 | -35.13686 | -59.05298 | 27273 ft | 420 kts | 240° |
| 2026-04-22 16:08 | -35.15416 | -59.08185 | 27529 ft | 423 kts | 240° |
| 2026-04-22 16:08 | -35.17157 | -59.11089 | 27831 ft | 424 kts | 240° |
| 2026-04-22 16:08 | -35.18904 | -59.14007 | 28129 ft | 425 kts | 240° |
| 2026-04-22 16:08 | -35.20653 | -59.16941 | 28415 ft | 427 kts | 240° |
| 2026-04-22 16:09 | -35.22371 | -59.19895 | 28746 ft | 426 kts | 241° |
| 2026-04-22 16:09 | -35.24072 | -59.22862 | 29171 ft | 424 kts | 241° |
| 2026-04-22 16:09 | -35.25760 | -59.25815 | 29647 ft | 422 kts | 241° |
| 2026-04-22 16:09 | -35.27440 | -59.28752 | 30092 ft | 420 kts | 241° |
| 2026-04-22 16:10 | -35.29111 | -59.31673 | 30435 ft | 419 kts | 241° |
| 2026-04-22 16:10 | -35.30781 | -59.34588 | 30786 ft | 417 kts | 242° |
| 2026-04-22 16:10 | -35.31884 | -59.36514 | 31025 ft | 416 kts | 242° |
| 2026-04-22 16:10 | -35.34076 | -59.40339 | 31591 ft | 411 kts | 242° |
| 2026-04-22 16:11 | -35.35710 | -59.43190 | 32065 ft | 406 kts | 243° |
| 2026-04-22 16:11 | -35.37329 | -59.46002 | 32507 ft | 402 kts | 243° |
| 2026-04-22 16:11 | -35.38955 | -59.48781 | 32898 ft | 400 kts | 243° |
| 2026-04-22 16:11 | -35.40578 | -59.51540 | 33260 ft | 397 kts | 243° |
| 2026-04-22 16:12 | -35.42188 | -59.54276 | 33659 ft | 394 kts | 243° |
| 2026-04-22 16:12 | -35.43781 | -59.56984 | 34063 ft | 390 kts | 244° |
| 2026-04-22 16:12 | -35.45358 | -59.59673 | 34389 ft | 387 kts | 244° |
| 2026-04-22 16:12 | -35.46929 | -59.62358 | 34632 ft | 387 kts | 244° |
| 2026-04-22 16:13 | -35.48501 | -59.65054 | 34749 ft | 389 kts | 244° |
| 2026-04-22 16:13 | -35.50080 | -59.67766 | 34924 ft | 390 kts | 244° |
| 2026-04-22 16:13 | -35.51654 | -59.70467 | 35142 ft | 390 kts | 244° |
| 2026-04-22 16:13 | -35.53230 | -59.73172 | 35387 ft | 389 kts | 244° |
| 2026-04-22 16:14 | -35.54807 | -59.75880 | 35589 ft | 388 kts | 244° |
| 2026-04-22 16:14 | -35.56367 | -59.78561 | 35839 ft | 387 kts | 244° |
| 2026-04-22 16:14 | -35.57927 | -59.81243 | 36096 ft | 385 kts | 244° |
| 2026-04-22 16:14 | -35.59490 | -59.83937 | 36103 ft | 388 kts | 244° |
| 2026-04-22 16:15 | -35.62599 | -59.89299 | 36137 ft | 387 kts | 244° |
| 2026-04-22 16:15 | -35.65709 | -59.94666 | 36126 ft | 385 kts | 244° |
| 2026-04-22 16:16 | -35.68803 | -60.00014 | 36130 ft | 383 kts | 244° |
| 2026-04-22 16:16 | -35.71883 | -60.05350 | 36133 ft | 382 kts | 245° |
| 2026-04-22 16:17 | -35.74956 | -60.10683 | 36132 ft | 381 kts | 245° |
| 2026-04-22 16:17 | -35.78024 | -60.16015 | 36135 ft | 382 kts | 245° |
| 2026-04-22 16:18 | -35.80578 | -60.20460 | 36140 ft | 384 kts | 245° |
| 2026-04-22 16:18 | -35.83666 | -60.25843 | 36140 ft | 385 kts | 244° |
| 2026-04-22 16:19 | -35.86766 | -60.31253 | 36142 ft | 387 kts | 244° |
| 2026-04-22 16:19 | -35.89881 | -60.36696 | 36141 ft | 389 kts | 244° |
| 2026-04-22 16:20 | -35.93009 | -60.42172 | 36145 ft | 391 kts | 244° |
| 2026-04-22 16:20 | -35.96146 | -60.47671 | 36174 ft | 393 kts | 244° |
| 2026-04-22 16:21 | -35.99303 | -60.53217 | 36149 ft | 395 kts | 244° |
| 2026-04-22 16:21 | -36.02468 | -60.58781 | 36149 ft | 396 kts | 244° |
| 2026-04-22 16:22 | -36.07213 | -60.67143 | 36150 ft | 396 kts | 244° |
| 2026-04-22 16:23 | -36.11937 | -60.75488 | 36174 ft | 396 kts | 244° |
| 2026-04-22 16:23 | -36.15088 | -60.81084 | 36157 ft | 396 kts | 244° |
| 2026-04-22 16:24 | -36.19787 | -60.89482 | 36144 ft | 395 kts | 244° |
| 2026-04-22 16:25 | -36.22911 | -60.95075 | 36146 ft | 394 kts | 244° |
| 2026-04-22 16:25 | -36.27563 | -61.03418 | 36147 ft | 393 kts | 244° |
| 2026-04-22 16:26 | -36.30670 | -61.09001 | 36147 ft | 394 kts | 244° |
| 2026-04-22 16:26 | -36.33775 | -61.14592 | 36147 ft | 394 kts | 244° |
| 2026-04-22 16:27 | -36.36883 | -61.20195 | 36146 ft | 395 kts | 244° |
| 2026-04-22 16:27 | -36.39995 | -61.25815 | 36139 ft | 395 kts | 244° |
| 2026-04-22 16:28 | -36.43115 | -61.31460 | 36145 ft | 396 kts | 244° |
| 2026-04-22 16:28 | -36.46240 | -61.37127 | 36151 ft | 398 kts | 244° |
| 2026-04-22 16:29 | -36.49366 | -61.42803 | 36142 ft | 399 kts | 244° |
| 2026-04-22 16:29 | -36.52478 | -61.48464 | 36136 ft | 399 kts | 244° |
| 2026-04-22 16:30 | -36.55608 | -61.54165 | 36139 ft | 399 kts | 244° |
| 2026-04-22 16:30 | -36.58740 | -61.59880 | 36138 ft | 399 kts | 244° |
| 2026-04-22 16:31 | -36.61869 | -61.65600 | 36137 ft | 399 kts | 244° |
| 2026-04-22 16:31 | -36.64992 | -61.71318 | 36135 ft | 399 kts | 245° |
| 2026-04-22 16:32 | -36.68108 | -61.77033 | 36136 ft | 398 kts | 245° |
| 2026-04-22 16:32 | -36.71214 | -61.82741 | 36135 ft | 398 kts | 245° |
| 2026-04-22 16:33 | -36.74318 | -61.88453 | 36138 ft | 397 kts | 245° |
| 2026-04-22 16:33 | -36.77416 | -61.94164 | 36197 ft | 398 kts | 245° |
| 2026-04-22 16:34 | -36.80498 | -61.99859 | 36143 ft | 398 kts | 245° |
| 2026-04-22 16:34 | -36.83587 | -62.05570 | 36133 ft | 397 kts | 245° |
| 2026-04-22 16:35 | -36.86668 | -62.11277 | 36128 ft | 395 kts | 246° |
| 2026-04-22 16:35 | -36.89735 | -62.16970 | 36128 ft | 394 kts | 246° |
| 2026-04-22 16:36 | -36.92788 | -62.22646 | 36150 ft | 393 kts | 246° |
| 2026-04-22 16:36 | -36.95828 | -62.28308 | 36135 ft | 392 kts | 246° |
| 2026-04-22 16:37 | -36.98860 | -62.33965 | 36131 ft | 391 kts | 246° |
| 2026-04-22 16:37 | -37.01886 | -62.39620 | 36132 ft | 391 kts | 246° |
| 2026-04-22 16:38 | -37.04908 | -62.45278 | 36129 ft | 391 kts | 246° |
| 2026-04-22 16:38 | -37.07928 | -62.50942 | 36128 ft | 391 kts | 246° |
| 2026-04-22 16:39 | -37.10950 | -62.56618 | 36138 ft | 392 kts | 246° |
| 2026-04-22 16:39 | -37.13976 | -62.62312 | 36133 ft | 393 kts | 246° |
| 2026-04-22 16:40 | -37.17006 | -62.68023 | 36173 ft | 394 kts | 246° |
| 2026-04-22 16:41 | -37.21567 | -62.76638 | 36132 ft | 396 kts | 246° |
| 2026-04-22 16:41 | -37.24591 | -62.82361 | 36122 ft | 396 kts | 246° |
| 2026-04-22 16:42 | -37.27637 | -62.88137 | 36134 ft | 397 kts | 246° |
| 2026-04-22 16:42 | -37.30688 | -62.93930 | 36127 ft | 397 kts | 246° |
| 2026-04-22 16:43 | -37.33737 | -62.99728 | 36124 ft | 398 kts | 246° |
| 2026-04-22 16:43 | -37.37385 | -63.05142 | 36142 ft | 412 kts | 237° |
| 2026-04-22 16:44 | -37.41415 | -63.10272 | 36131 ft | 412 kts | 237° |
| 2026-04-22 16:44 | -37.45427 | -63.15413 | 36136 ft | 412 kts | 237° |
| 2026-04-22 16:45 | -37.49428 | -63.20572 | 36122 ft | 412 kts | 237° |
| 2026-04-22 16:45 | -37.53396 | -63.25707 | 36135 ft | 412 kts | 237° |
| 2026-04-22 16:46 | -37.57389 | -63.30886 | 36126 ft | 412 kts | 237° |
| 2026-04-22 16:46 | -37.61381 | -63.36071 | 36117 ft | 411 kts | 237° |
| 2026-04-22 16:47 | -37.65362 | -63.41251 | 36115 ft | 411 kts | 237° |
| 2026-04-22 16:47 | -37.68669 | -63.45560 | 36128 ft | 412 kts | 236° |
| 2026-04-22 16:48 | -37.73334 | -63.51650 | 36108 ft | 412 kts | 236° |
| 2026-04-22 16:48 | -37.77318 | -63.56860 | 36125 ft | 413 kts | 236° |
| 2026-04-22 16:49 | -37.81311 | -63.62090 | 36115 ft | 413 kts | 236° |
| 2026-04-22 16:49 | -37.85303 | -63.67327 | 36129 ft | 414 kts | 236° |
| 2026-04-22 16:50 | -37.89280 | -63.72554 | 36117 ft | 415 kts | 236° |
| 2026-04-22 16:50 | -37.93297 | -63.77842 | 36111 ft | 416 kts | 236° |
| 2026-04-22 16:51 | -37.97304 | -63.83124 | 36109 ft | 416 kts | 236° |
| 2026-04-22 16:51 | -38.01315 | -63.88420 | 36104 ft | 416 kts | 236° |
| 2026-04-22 16:52 | -38.05333 | -63.93734 | 36107 ft | 416 kts | 236° |
| 2026-04-22 16:52 | -38.09314 | -63.99009 | 36101 ft | 416 kts | 236° |
| 2026-04-22 16:53 | -38.13319 | -64.04326 | 36104 ft | 416 kts | 236° |
| 2026-04-22 16:53 | -38.17320 | -64.09646 | 36110 ft | 416 kts | 235° |
| 2026-04-22 16:54 | -38.21312 | -64.14962 | 36100 ft | 415 kts | 235° |
| 2026-04-22 16:54 | -38.25292 | -64.20271 | 36100 ft | 414 kts | 235° |
| 2026-04-22 16:55 | -38.29244 | -64.25553 | 36099 ft | 414 kts | 235° |
| 2026-04-22 16:55 | -38.33210 | -64.30863 | 36092 ft | 413 kts | 235° |
| 2026-04-22 16:56 | -38.37163 | -64.36164 | 36110 ft | 412 kts | 235° |
| 2026-04-22 16:56 | -38.41108 | -64.41464 | 36100 ft | 412 kts | 234° |
| 2026-04-22 16:57 | -38.45042 | -64.46756 | 36093 ft | 411 kts | 234° |
| 2026-04-22 16:57 | -38.48975 | -64.52058 | 36101 ft | 411 kts | 234° |
| 2026-04-22 16:58 | -38.52240 | -64.56466 | 36102 ft | 411 kts | 234° |
| 2026-04-22 16:58 | -38.56815 | -64.62653 | 36094 ft | 410 kts | 234° |
| 2026-04-22 16:59 | -38.60706 | -64.67923 | 36096 ft | 409 kts | 234° |
| 2026-04-22 16:59 | -38.64607 | -64.73218 | 36094 ft | 408 kts | 234° |
| 2026-04-22 17:00 | -38.68508 | -64.78520 | 36099 ft | 408 kts | 234° |
| 2026-04-22 17:00 | -38.74351 | -64.86481 | 36094 ft | 409 kts | 234° |
| 2026-04-22 17:01 | -38.78243 | -64.91794 | 36091 ft | 409 kts | 234° |
| 2026-04-22 17:01 | -38.82138 | -64.97120 | 36089 ft | 409 kts | 234° |
| 2026-04-22 17:02 | -38.86005 | -65.02419 | 36089 ft | 410 kts | 233° |
| 2026-04-22 17:02 | -38.89902 | -65.07767 | 36091 ft | 410 kts | 233° |
| 2026-04-22 17:03 | -38.93793 | -65.13118 | 36093 ft | 410 kts | 233° |
| 2026-04-22 17:03 | -38.97689 | -65.18486 | 36088 ft | 410 kts | 233° |
| 2026-04-22 17:04 | -39.01586 | -65.23863 | 36096 ft | 411 kts | 233° |
| 2026-04-22 17:04 | -39.05485 | -65.29254 | 36095 ft | 411 kts | 233° |
| 2026-04-22 17:05 | -39.09380 | -65.34648 | 36091 ft | 412 kts | 232° |
| 2026-04-22 17:05 | -39.13260 | -65.40030 | 36093 ft | 413 kts | 232° |
| 2026-04-22 17:06 | -39.16532 | -65.44576 | 36103 ft | 413 kts | 232° |
| 2026-04-22 17:06 | -39.21068 | -65.50890 | 36093 ft | 413 kts | 232° |
| 2026-04-22 17:07 | -39.24338 | -65.55450 | 36090 ft | 413 kts | 232° |
| 2026-04-22 17:07 | -39.28248 | -65.60909 | 36090 ft | 413 kts | 232° |
| 2026-04-22 17:08 | -39.32148 | -65.66360 | 36093 ft | 414 kts | 232° |
| 2026-04-22 17:08 | -39.36027 | -65.71789 | 36092 ft | 414 kts | 232° |
| 2026-04-22 17:09 | -39.39941 | -65.77279 | 36100 ft | 414 kts | 232° |
| 2026-04-22 17:09 | -39.43841 | -65.82759 | 36090 ft | 415 kts | 232° |
| 2026-04-22 17:10 | -39.47741 | -65.88250 | 36094 ft | 414 kts | 232° |
| 2026-04-22 17:10 | -39.51636 | -65.93742 | 36093 ft | 414 kts | 231° |
| 2026-04-22 17:11 | -39.55528 | -65.99241 | 36087 ft | 413 kts | 231° |
| 2026-04-22 17:11 | -39.59412 | -66.04738 | 36086 ft | 413 kts | 231° |
| 2026-04-22 17:12 | -39.63267 | -66.10204 | 36090 ft | 412 kts | 231° |
| 2026-04-22 17:12 | -39.67160 | -66.15733 | 36118 ft | 412 kts | 231° |
| 2026-04-22 17:13 | -39.71018 | -66.21223 | 36095 ft | 411 kts | 231° |
| 2026-04-22 17:13 | -39.74869 | -66.26712 | 36083 ft | 410 kts | 231° |
| 2026-04-22 17:14 | -39.78705 | -66.32190 | 36084 ft | 409 kts | 231° |
| 2026-04-22 17:14 | -39.82512 | -66.37636 | 36076 ft | 408 kts | 231° |
| 2026-04-22 17:15 | -39.86331 | -66.43108 | 36087 ft | 408 kts | 231° |
| 2026-04-22 17:15 | -39.90137 | -66.48572 | 36080 ft | 407 kts | 231° |
| 2026-04-22 17:16 | -39.93932 | -66.54031 | 36080 ft | 407 kts | 231° |
| 2026-04-22 17:16 | -39.97732 | -66.59507 | 36115 ft | 407 kts | 230° |
| 2026-04-22 17:17 | -40.01527 | -66.64984 | 36084 ft | 406 kts | 230° |
| 2026-04-22 17:17 | -40.05280 | -66.70410 | 36069 ft | 404 kts | 230° |
| 2026-04-22 17:18 | -40.09037 | -66.75852 | 36071 ft | 403 kts | 230° |
| 2026-04-22 17:18 | -40.12782 | -66.81286 | 36072 ft | 401 kts | 230° |
| 2026-04-22 17:19 | -40.20221 | -66.92111 | 36082 ft | 399 kts | 230° |
| 2026-04-22 17:20 | -40.27613 | -67.02905 | 36081 ft | 398 kts | 230° |
| 2026-04-22 17:21 | -40.33148 | -67.11013 | 36065 ft | 398 kts | 230° |
| 2026-04-22 17:22 | -40.38676 | -67.19131 | 36062 ft | 398 kts | 230° |
| 2026-04-22 17:23 | -40.44177 | -67.27228 | 36062 ft | 398 kts | 230° |
| 2026-04-22 17:23 | -40.49697 | -67.35372 | 36066 ft | 398 kts | 231° |
| 2026-04-22 17:24 | -40.53372 | -67.40808 | 36056 ft | 398 kts | 231° |
| 2026-04-22 17:24 | -40.57041 | -67.46243 | 36074 ft | 398 kts | 231° |
| 2026-04-22 17:25 | -40.60715 | -67.51697 | 36063 ft | 398 kts | 231° |
| 2026-04-22 17:25 | -40.64381 | -67.57148 | 36049 ft | 398 kts | 231° |
| 2026-04-22 17:26 | -40.68023 | -67.62573 | 36059 ft | 397 kts | 231° |
| 2026-04-22 17:26 | -40.71686 | -67.68040 | 36060 ft | 397 kts | 231° |
| 2026-04-22 17:27 | -40.75343 | -67.73509 | 36061 ft | 398 kts | 231° |
| 2026-04-22 17:27 | -40.79002 | -67.78988 | 36061 ft | 398 kts | 231° |
| 2026-04-22 17:28 | -40.82660 | -67.84477 | 36061 ft | 398 kts | 231° |
| 2026-04-22 17:28 | -40.86320 | -67.89980 | 36066 ft | 399 kts | 231° |
| 2026-04-22 17:29 | -40.89959 | -67.95460 | 36063 ft | 399 kts | 231° |
| 2026-04-22 17:29 | -40.93624 | -68.00988 | 36058 ft | 400 kts | 231° |
| 2026-04-22 17:30 | -40.97284 | -68.06521 | 36063 ft | 399 kts | 231° |
| 2026-04-22 17:30 | -41.00940 | -68.12057 | 36059 ft | 400 kts | 231° |
| 2026-04-22 17:31 | -41.04599 | -68.17609 | 36057 ft | 400 kts | 231° |
| 2026-04-22 17:31 | -41.08260 | -68.23172 | 36054 ft | 400 kts | 231° |
| 2026-04-22 17:32 | -41.11909 | -68.28727 | 36057 ft | 399 kts | 231° |
| 2026-04-22 17:32 | -41.15531 | -68.34253 | 36059 ft | 399 kts | 231° |
| 2026-04-22 17:33 | -41.19196 | -68.39853 | 36062 ft | 399 kts | 231° |
| 2026-04-22 17:33 | -41.22815 | -68.45395 | 36059 ft | 399 kts | 231° |
| 2026-04-22 17:34 | -41.26453 | -68.50976 | 36061 ft | 399 kts | 231° |
| 2026-04-22 17:34 | -41.30092 | -68.56567 | 36056 ft | 400 kts | 231° |
| 2026-04-22 17:35 | -41.33733 | -68.62174 | 36062 ft | 400 kts | 231° |
| 2026-04-22 17:35 | -41.37374 | -68.67790 | 36065 ft | 402 kts | 231° |
| 2026-04-22 17:36 | -41.41032 | -68.73444 | 36066 ft | 403 kts | 231° |
| 2026-04-22 17:36 | -41.44690 | -68.79108 | 36071 ft | 404 kts | 231° |
| 2026-04-22 17:37 | -41.48357 | -68.84796 | 36064 ft | 405 kts | 231° |
| 2026-04-22 17:37 | -41.52013 | -68.90479 | 36063 ft | 406 kts | 231° |
| 2026-04-22 17:38 | -41.55690 | -68.96204 | 36064 ft | 407 kts | 231° |
| 2026-04-22 17:38 | -41.59374 | -69.01951 | 36069 ft | 407 kts | 231° |
| 2026-04-22 17:39 | -41.63057 | -69.07709 | 35874 ft | 411 kts | 231° |
| 2026-04-22 17:39 | -41.66763 | -69.13513 | 35016 ft | 406 kts | 231° |
| 2026-04-22 17:40 | -41.68591 | -69.16379 | 34595 ft | 401 kts | 231° |
| 2026-04-22 17:40 | -41.70397 | -69.19214 | 34166 ft | 398 kts | 231° |
| 2026-04-22 17:40 | -41.72181 | -69.22018 | 33682 ft | 395 kts | 231° |
| 2026-04-22 17:40 | -41.73954 | -69.24806 | 33215 ft | 391 kts | 231° |
| 2026-04-22 17:41 | -41.75703 | -69.27561 | 32770 ft | 387 kts | 231° |
| 2026-04-22 17:41 | -41.77438 | -69.30296 | 32339 ft | 383 kts | 231° |
| 2026-04-22 17:41 | -41.79154 | -69.33003 | 31913 ft | 379 kts | 231° |
| 2026-04-22 17:41 | -41.80851 | -69.35681 | 31497 ft | 375 kts | 231° |
| 2026-04-22 17:42 | -41.82513 | -69.38306 | 31083 ft | 372 kts | 231° |
| 2026-04-22 17:42 | -41.84181 | -69.40943 | 30683 ft | 369 kts | 231° |
| 2026-04-22 17:42 | -41.85297 | -69.42708 | 30414 ft | 367 kts | 231° |
| 2026-04-22 17:42 | -41.87470 | -69.46148 | 29830 ft | 363 kts | 231° |
| 2026-04-22 17:43 | -41.89094 | -69.48723 | 29368 ft | 359 kts | 231° |
| 2026-04-22 17:43 | -41.90696 | -69.51265 | 28965 ft | 354 kts | 231° |
| 2026-04-22 17:43 | -41.92282 | -69.53782 | 28545 ft | 351 kts | 232° |
| 2026-04-22 17:43 | -41.93849 | -69.56272 | 28138 ft | 346 kts | 232° |
| 2026-04-22 17:44 | -41.95395 | -69.58731 | 27723 ft | 343 kts | 232° |
| 2026-04-22 17:44 | -41.96925 | -69.61168 | 27331 ft | 339 kts | 232° |
| 2026-04-22 17:44 | -41.98440 | -69.63582 | 26929 ft | 336 kts | 232° |
| 2026-04-22 17:44 | -41.99944 | -69.65982 | 26558 ft | 334 kts | 232° |
| 2026-04-22 17:45 | -42.01435 | -69.68361 | 26158 ft | 331 kts | 232° |
| 2026-04-22 17:45 | -42.02913 | -69.70723 | 25767 ft | 328 kts | 232° |
| 2026-04-22 17:45 | -42.04360 | -69.73035 | 25393 ft | 326 kts | 232° |
| 2026-04-22 17:45 | -42.05815 | -69.75365 | 25010 ft | 324 kts | 232° |
| 2026-04-22 17:46 | -42.07259 | -69.77676 | 24641 ft | 322 kts | 231° |
| 2026-04-22 17:46 | -42.08692 | -69.79973 | 24261 ft | 319 kts | 231° |
| 2026-04-22 17:46 | -42.10115 | -69.82255 | 23896 ft | 317 kts | 231° |
| 2026-04-22 17:46 | -42.11531 | -69.84527 | 23500 ft | 316 kts | 231° |
| 2026-04-22 17:47 | -42.12941 | -69.86792 | 23062 ft | 314 kts | 231° |
| 2026-04-22 17:47 | -42.14337 | -69.89037 | 22654 ft | 312 kts | 231° |
| 2026-04-22 17:47 | -42.15725 | -69.91269 | 22297 ft | 309 kts | 231° |
| 2026-04-22 17:47 | -42.17099 | -69.93482 | 21932 ft | 307 kts | 231° |
| 2026-04-22 17:48 | -42.18020 | -69.94965 | 21681 ft | 305 kts | 231° |
| 2026-04-22 17:48 | -42.19815 | -69.97859 | 21206 ft | 302 kts | 231° |
| 2026-04-22 17:48 | -42.21163 | -70.00032 | 20853 ft | 300 kts | 231° |
| 2026-04-22 17:48 | -42.22499 | -70.02190 | 20493 ft | 299 kts | 231° |
| 2026-04-22 17:49 | -42.23828 | -70.04337 | 20137 ft | 297 kts | 231° |
| 2026-04-22 17:49 | -42.25149 | -70.06472 | 19793 ft | 296 kts | 231° |
| 2026-04-22 17:49 | -42.26470 | -70.08610 | 19439 ft | 296 kts | 231° |
| 2026-04-22 17:49 | -42.27798 | -70.10759 | 19095 ft | 299 kts | 231° |
| 2026-04-22 17:50 | -42.29137 | -70.12930 | 18726 ft | 304 kts | 230° |
| 2026-04-22 17:50 | -42.30507 | -70.15151 | 18322 ft | 311 kts | 230° |
| 2026-04-22 17:50 | -42.31880 | -70.17380 | 17913 ft | 311 kts | 230° |
| 2026-04-22 17:50 | -42.33260 | -70.19621 | 17532 ft | 309 kts | 230° |
| 2026-04-22 17:51 | -42.34632 | -70.21850 | 17132 ft | 307 kts | 230° |
| 2026-04-22 17:51 | -42.35994 | -70.24066 | 16758 ft | 305 kts | 230° |
| 2026-04-22 17:51 | -42.37347 | -70.26267 | 16392 ft | 303 kts | 230° |
| 2026-04-22 17:51 | -42.38693 | -70.28460 | 16026 ft | 302 kts | 230° |
| 2026-04-22 17:52 | -42.39578 | -70.29902 | 15769 ft | 301 kts | 230° |
| 2026-04-22 17:52 | -42.40908 | -70.32071 | 15411 ft | 298 kts | 230° |
| 2026-04-22 17:52 | -42.42232 | -70.34232 | 15059 ft | 297 kts | 230° |
| 2026-04-22 17:52 | -42.43552 | -70.36388 | 14686 ft | 297 kts | 230° |
| 2026-04-22 17:53 | -42.44871 | -70.38544 | 14300 ft | 297 kts | 230° |
| 2026-04-22 17:53 | -42.46184 | -70.40692 | 13937 ft | 296 kts | 230° |
| 2026-04-22 17:53 | -42.47497 | -70.42840 | 13527 ft | 295 kts | 230° |
| 2026-04-22 17:53 | -42.49221 | -70.45665 | 13032 ft | 292 kts | 231° |
| 2026-04-22 17:54 | -42.50092 | -70.47092 | 12785 ft | 290 kts | 231° |
| 2026-04-22 17:54 | -42.51371 | -70.49190 | 12420 ft | 289 kts | 231° |
| 2026-04-22 17:54 | -42.52648 | -70.51287 | 12050 ft | 287 kts | 231° |
| 2026-04-22 17:54 | -42.53915 | -70.53367 | 11703 ft | 285 kts | 231° |
| 2026-04-22 17:55 | -42.55175 | -70.55437 | 11337 ft | 283 kts | 232° |
| 2026-04-22 17:55 | -42.56397 | -70.57444 | 10969 ft | 274 kts | 233° |
| 2026-04-22 17:55 | -42.57586 | -70.59402 | 10626 ft | 264 kts | 233° |
| 2026-04-22 17:55 | -42.58731 | -70.61289 | 10389 ft | 252 kts | 233° |
| 2026-04-22 17:56 | -42.59811 | -70.63070 | 10239 ft | 239 kts | 233° |
| 2026-04-22 17:56 | -42.60849 | -70.64786 | 10133 ft | 233 kts | 234° |
| 2026-04-22 17:56 | -42.61875 | -70.66485 | 10055 ft | 235 kts | 234° |
| 2026-04-22 17:56 | -42.62939 | -70.68250 | 9739 ft | 246 kts | 234° |
| 2026-04-22 17:57 | -42.64030 | -70.70059 | 9445 ft | 248 kts | 234° |
| 2026-04-22 17:57 | -42.65122 | -70.71866 | 9136 ft | 246 kts | 234° |
| 2026-04-22 17:57 | -42.66204 | -70.73657 | 8835 ft | 244 kts | 234° |
| 2026-04-22 17:57 | -42.67277 | -70.75435 | 8560 ft | 242 kts | 234° |
| 2026-04-22 17:58 | -42.68347 | -70.77208 | 8273 ft | 241 kts | 234° |
| 2026-04-22 17:58 | -42.69421 | -70.78942 | 8008 ft | 239 kts | 233° |
| 2026-04-22 17:58 | -42.70495 | -70.80660 | 7753 ft | 238 kts | 233° |
| 2026-04-22 17:58 | -42.71559 | -70.82366 | 7459 ft | 234 kts | 233° |
| 2026-04-22 17:59 | -42.72604 | -70.84039 | 7283 ft | 233 kts | 233° |
| 2026-04-22 17:59 | -42.73688 | -70.85729 | 7032 ft | 242 kts | 228° |
| 2026-04-22 17:59 | -42.75102 | -70.87032 | 6840 ft | 247 kts | 214° |
| 2026-04-22 17:59 | -42.76596 | -70.88206 | 6684 ft | 248 kts | 217° |
| 2026-04-22 18:00 | -42.77585 | -70.89003 | 6556 ft | 248 kts | 218° |
| 2026-04-22 18:00 | -42.79427 | -70.90729 | 6231 ft | 235 kts | 234° |
| 2026-04-22 18:00 | -42.80393 | -70.92459 | 5957 ft | 223 kts | 241° |
| 2026-04-22 18:00 | -42.81212 | -70.94170 | 5677 ft | 209 kts | 242° |
| 2026-04-22 18:01 | -42.81970 | -70.95786 | 5405 ft | 194 kts | 242° |
| 2026-04-22 18:01 | -42.82661 | -70.97247 | 5158 ft | 173 kts | 243° |
| 2026-04-22 18:01 | -42.83277 | -70.98549 | 4974 ft | 152 kts | 243° |
| 2026-04-22 18:01 | -42.83819 | -70.99694 | 4738 ft | 139 kts | 243° |
| 2026-04-22 18:02 | -42.84345 | -71.00811 | 4575 ft | 141 kts | 244° |
| 2026-04-22 18:02 | -42.84871 | -71.01921 | 4389 ft | 137 kts | 244° |
| 2026-04-22 18:02 | -42.85391 | -71.03021 | 4206 ft | 139 kts | 243° |
| 2026-04-22 18:02 | -42.85910 | -71.04118 | 4027 ft | 137 kts | 242° |
| 2026-04-22 18:03 | -42.86430 | -71.05215 | 3836 ft | 138 kts | 241° |
| 2026-04-22 18:03 | -42.86950 | -71.06311 | 3650 ft | 138 kts | 240° |
| 2026-04-22 18:03 | -42.87483 | -71.07436 | 3477 ft | 144 kts | 239° |
| 2026-04-22 18:03 | -42.88025 | -71.08590 | 3290 ft | 143 kts | 239° |
| 2026-04-22 18:04 | -42.88548 | -71.09764 | 3103 ft | 147 kts | 238° |
| 2026-04-22 18:04 | -42.89126 | -71.10901 | 2900 ft | 145 kts | 238° |
| 2026-04-22 18:04 | -42.89657 | -71.12031 | 2722 ft | 144 kts | 237° |
| 2026-04-22 18:04 | -42.90188 | -71.13143 | 2637 ft | 129 kts | 238° |
| 2026-04-22 18:05 | -42.90579 | -71.13971 | 2635 ft | 73 kts | 237° |
| 2026-04-22 18:05 | -42.90747 | -71.14323 | 2635 ft | 24 kts | 237° |
| 2026-04-22 18:05 | -42.90811 | -71.14460 | 2637 ft | 10 kts | 237° |
| 2026-04-22 18:05 | -42.90847 | -71.14537 | 2637 ft | 9 kts | 238° |
| 2026-04-22 18:06 | -42.90862 | -71.14613 | 2637 ft | 8 kts | 309° |
| 2026-04-22 18:06 | -42.90809 | -71.14604 | 2636 ft | 7 kts | 25° |
| 2026-04-22 18:06 | -42.90775 | -71.14582 | 2636 ft | 5 kts | 25° |
| 2026-04-22 18:06 | -42.90739 | -71.14574 | 2636 ft | 5 kts | 349° |
| 2026-04-22 18:07 | -42.90707 | -71.14594 | 2635 ft | 5 kts | 331° |
| 2026-04-22 18:07 | -42.90673 | -71.14605 | 2635 ft | 5 kts | 358° |
| 2026-04-22 18:07 | -42.90638 | -71.14603 | 2635 ft | 5 kts | 351° |
| 2026-04-22 18:07 | -42.90631 | -71.14628 | 2635 ft | 2 kts | 274° |
| 2026-04-22 18:08 | -42.90630 | -71.14636 | 2635 ft | 0 kts | 274° |